sensor_id;sensor_type;location;lat;lon;timestamp;pressure;altitude;pressure_sealevel;temperature;humidity
2000;BME280;1001;48.87406500;9.59633600;2023-04-09T00:01:33;95663.44;;;5.93;100.00
2000;BME280;1001;48.87406500;9.59633600;2023-04-09T00:04:00;95666.69;;;6.02;100.00
2000;BME280;1001;48.87406500;9.59633600;2023-04-09T00:06:26;95666.09;;;6.00;100.00
2000;BME280;1001;48.87406500;9.59633600;2023-04-09T00:08:53;95664.59;;;6.12;100.00
2000;BME280;1001;48.87406500;9.59633600;2023-04-09T00:11:20;95670.97;;;6.09;100.00
2000;BME280;1001;48.87406500;9.59633600;2023-04-09T00:13:48;95667.34;;;6.10;100.00
2000;BME280;1001;48.87406500;9.59633600;2023-04-09T00:16:14;95669.22;;;6.16;100.00
2000;BME280;1001;48.87406500;9.59633600;2023-04-09T00:18:41;95662.41;;;6.15;100.00
2000;BME280;1001;48.87406500;9.59633600;2023-04-09T00:21:08;95666.44;;;6.18;100.00
2000;BME280;1001;48.87406500;9.59633600;2023-04-09T00:23:34;95668.78;;;6.13;100.00
2000;BME280;1001;48.87406500;9.59633600;2023-04-09T00:26:01;95662.00;;;6.12;100.00
2000;BME280;1001;48.87406500;9.59633600;2023-04-09T00:28:27;95665.31;;;6.06;100.00
2000;BME280;1001;48.87406500;9.59633600;2023-04-09T00:30:56;95665.16;;;6.07;100.00
2000;BME280;1001;48.87406500;9.59633600;2023-04-09T00:33:22;95663.91;;;6.03;100.00
2000;BME280;1001;48.87406500;9.59633600;2023-04-09T00:35:49;95662.50;;;6.01;100.00
2000;BME280;1001;48.87406500;9.59633600;2023-04-09T00:38:15;95667.50;;;6.02;100.00
2000;BME280;1001;48.87406500;9.59633600;2023-04-09T00:40:42;95663.22;;;6.16;100.00
2000;BME280;1001;48.87406500;9.59633600;2023-04-09T00:43:09;95658.78;;;6.10;100.00
2000;BME280;1001;48.87406500;9.59633600;2023-04-09T00:45:36;95659.09;;;6.00;100.00
2000;BME280;1001;48.87406500;9.59633600;2023-04-09T00:48:04;95659.28;;;5.99;100.00
2000;BME280;1001;48.87406500;9.59633600;2023-04-09T00:50:32;95667.88;;;5.99;100.00
2000;BME280;1001;48.87406500;9.59633600;2023-04-09T00:53:00;95665.63;;;5.96;100.00
2000;BME280;1001;48.87406500;9.59633600;2023-04-09T00:55:27;95663.25;;;5.95;100.00
2000;BME280;1001;48.87406500;9.59633600;2023-04-09T00:57:54;95665.22;;;5.93;100.00
2000;BME280;1001;48.87406500;9.59633600;2023-04-09T01:00:21;95660.66;;;5.95;100.00
2000;BME280;1001;48.87406500;9.59633600;2023-04-09T01:02:48;95663.44;;;5.93;100.00
2000;BME280;1001;48.87406500;9.59633600;2023-04-09T01:05:17;95664.16;;;6.08;100.00
2000;BME280;1001;48.87406500;9.59633600;2023-04-09T01:07:53;95662.69;;;5.99;100.00
2000;BME280;1001;48.87406500;9.59633600;2023-04-09T01:10:30;95663.75;;;6.05;100.00
2000;BME280;1001;48.87406500;9.59633600;2023-04-09T01:13:06;95661.25;;;5.97;100.00
2000;BME280;1001;48.87406500;9.59633600;2023-04-09T01:15:38;95660.28;;;5.98;100.00
2000;BME280;1001;48.87406500;9.59633600;2023-04-09T01:18:09;95656.69;;;5.99;100.00
2000;BME280;1001;48.87406500;9.59633600;2023-04-09T01:20:40;95653.06;;;5.93;100.00
2000;BME280;1001;48.87406500;9.59633600;2023-04-09T01:23:15;95653.72;;;6.02;100.00
2000;BME280;1001;48.87406500;9.59633600;2023-04-09T01:25:52;95660.28;;;5.98;100.00
2000;BME280;1001;48.87406500;9.59633600;2023-04-09T01:28:31;95654.72;;;6.01;100.00
2000;BME280;1001;48.87406500;9.59633600;2023-04-09T01:31:00;95646.63;;;5.89;100.00
2000;BME280;1001;48.87406500;9.59633600;2023-04-09T01:33:29;95653.06;;;5.93;100.00
2000;BME280;1001;48.87406500;9.59633600;2023-04-09T01:35:57;95660.28;;;5.98;100.00
2000;BME280;1001;48.87406500;9.59633600;2023-04-09T01:38:24;95653.31;;;5.98;100.00
2000;BME280;1001;48.87406500;9.59633600;2023-04-09T01:40:53;95663.28;;;6.01;100.00
2000;BME280;1001;48.87406500;9.59633600;2023-04-09T01:43:21;95655.91;;;5.98;100.00
2000;BME280;1001;48.87406500;9.59633600;2023-04-09T01:45:50;95656.94;;;6.04;100.00
2000;BME280;1001;48.87406500;9.59633600;2023-04-09T01:48:18;95658.19;;;6.08;100.00
2000;BME280;1001;48.87406500;9.59633600;2023-04-09T01:50:45;95661.22;;;6.18;100.00
2000;BME280;1001;48.87406500;9.59633600;2023-04-09T01:53:13;95662.69;;;5.99;100.00
2000;BME280;1001;48.87406500;9.59633600;2023-04-09T01:55:39;95656.44;;;6.15;100.00
2000;BME280;1001;48.87406500;9.59633600;2023-04-09T01:58:06;95653.91;;;6.00;100.00
2000;BME280;1001;48.87406500;9.59633600;2023-04-09T02:00:35;95658.34;;;6.06;100.00
2000;BME280;1001;48.87406500;9.59633600;2023-04-09T02:03:07;95651.50;;;5.99;100.00
2000;BME280;1001;48.87406500;9.59633600;2023-04-09T02:05:38;95652.44;;;5.91;100.00
2000;BME280;1001;48.87406500;9.59633600;2023-04-09T02:08:09;95652.84;;;5.95;100.00
2000;BME280;1001;48.87406500;9.59633600;2023-04-09T02:10:39;95652.06;;;5.94;100.00
2000;BME280;1001;48.87406500;9.59633600;2023-04-09T02:13:08;95652.66;;;5.96;100.00
2000;BME280;1001;48.87406500;9.59633600;2023-04-09T02:15:37;95654.31;;;6.04;100.00
2000;BME280;1001;48.87406500;9.59633600;2023-04-09T02:18:19;95654.03;;;5.92;100.00
2000;BME280;1001;48.87406500;9.59633600;2023-04-09T02:20:46;95656.88;;;5.97;100.00
2000;BME280;1001;48.87406500;9.59633600;2023-04-09T02:23:14;95652.28;;;5.99;100.00
2000;BME280;1001;48.87406500;9.59633600;2023-04-09T02:25:41;95653.66;;;5.95;100.00
2000;BME280;1001;48.87406500;9.59633600;2023-04-09T02:28:08;95657.69;;;5.98;100.00
2000;BME280;1001;48.87406500;9.59633600;2023-04-09T02:30:34;95655.91;;;5.98;100.00
2000;BME280;1001;48.87406500;9.59633600;2023-04-09T02:33:01;95655.25;;;5.96;100.00
2000;BME280;1001;48.87406500;9.59633600;2023-04-09T02:35:29;95651.88;;;5.96;100.00
2000;BME280;1001;48.87406500;9.59633600;2023-04-09T02:37:55;95652.84;;;5.95;100.00
2000;BME280;1001;48.87406500;9.59633600;2023-04-09T02:40:22;95649.53;;;6.01;100.00
2000;BME280;1001;48.87406500;9.59633600;2023-04-09T02:42:49;95661.22;;;5.90;100.00
2000;BME280;1001;48.87406500;9.59633600;2023-04-09T02:45:16;95648.59;;;5.87;100.00
2000;BME280;1001;48.87406500;9.59633600;2023-04-09T02:47:42;95653.88;;;5.94;100.00
2000;BME280;1001;48.87406500;9.59633600;2023-04-09T02:50:09;95656.63;;;5.92;100.00
2000;BME280;1001;48.87406500;9.59633600;2023-04-09T02:52:37;95655.03;;;5.91;100.00
2000;BME280;1001;48.87406500;9.59633600;2023-04-09T02:55:04;95657.38;;;5.86;100.00
2000;BME280;1001;48.87406500;9.59633600;2023-04-09T02:57:31;95656.38;;;5.87;100.00
2000;BME280;1001;48.87406500;9.59633600;2023-04-09T02:59:58;95654.78;;;5.86;100.00
2000;BME280;1001;48.87406500;9.59633600;2023-04-09T03:02:24;95657.50;;;5.99;100.00
2000;BME280;1001;48.87406500;9.59633600;2023-04-09T03:04:51;95650.06;;;5.96;100.00
2000;BME280;1001;48.87406500;9.59633600;2023-04-09T03:07:18;95650.56;;;5.85;100.00
2000;BME280;1001;48.87406500;9.59633600;2023-04-09T03:09:46;95643.25;;;5.89;100.00
2000;BME280;1001;48.87406500;9.59633600;2023-04-09T03:12:12;95649.66;;;5.93;100.00
2000;BME280;1001;48.87406500;9.59633600;2023-04-09T03:14:39;95641.34;;;5.83;100.00
2000;BME280;1001;48.87406500;9.59633600;2023-04-09T03:17:06;95643.94;;;5.83;100.00
2000;BME280;1001;48.87406500;9.59633600;2023-04-09T03:19:32;95640.19;;;5.85;100.00
2000;BME280;1001;48.87406500;9.59633600;2023-04-09T03:21:59;95637.66;;;5.92;100.00
2000;BME280;1001;48.87406500;9.59633600;2023-04-09T03:24:25;95635.63;;;5.87;100.00
2000;BME280;1001;48.87406500;9.59633600;2023-04-09T03:26:53;95638.59;;;5.84;100.00
2000;BME280;1001;48.87406500;9.59633600;2023-04-09T03:29:20;95635.00;;;5.85;100.00
2000;BME280;1001;48.87406500;9.59633600;2023-04-09T03:31:46;95637.31;;;5.80;100.00
2000;BME280;1001;48.87406500;9.59633600;2023-04-09T03:34:13;95636.28;;;5.75;100.00
2000;BME280;1001;48.87406500;9.59633600;2023-04-09T03:36:39;95628.22;;;5.84;100.00
2000;BME280;1001;48.87406500;9.59633600;2023-04-09T03:39:06;95635.34;;;5.82;100.00
2000;BME280;1001;48.87406500;9.59633600;2023-04-09T03:41:33;95633.41;;;5.84;100.00
2000;BME280;1001;48.87406500;9.59633600;2023-04-09T03:44:01;95634.50;;;5.96;100.00
2000;BME280;1001;48.87406500;9.59633600;2023-04-09T03:46:27;95636.88;;;5.91;100.00
2000;BME280;1001;48.87406500;9.59633600;2023-04-09T03:48:54;95634.09;;;5.93;100.00
2000;BME280;1001;48.87406500;9.59633600;2023-04-09T03:51:20;95633.41;;;5.84;100.00
2000;BME280;1001;48.87406500;9.59633600;2023-04-09T03:53:47;95634.13;;;5.78;100.00
2000;BME280;1001;48.87406500;9.59633600;2023-04-09T03:56:14;95635.34;;;5.82;100.00
2000;BME280;1001;48.87406500;9.59633600;2023-04-09T03:58:40;95634.13;;;5.78;100.00
2000;BME280;1001;48.87406500;9.59633600;2023-04-09T04:01:08;95640.84;;;5.73;100.00
2000;BME280;1001;48.87406500;9.59633600;2023-04-09T04:03:35;95643.44;;;5.73;100.00
2000;BME280;1001;48.87406500;9.59633600;2023-04-09T04:06:02;95636.59;;;5.65;100.00
2000;BME280;1001;48.87406500;9.59633600;2023-04-09T04:08:29;95637.38;;;5.66;100.00
2000;BME280;1001;48.87406500;9.59633600;2023-04-09T04:10:55;95638.56;;;5.63;100.00
2000;BME280;1001;48.87406500;9.59633600;2023-04-09T04:13:28;95641.84;;;5.72;100.00
2000;BME280;1001;48.87406500;9.59633600;2023-04-09T04:15:54;95639.06;;;5.73;100.00
2000;BME280;1001;48.87406500;9.59633600;2023-04-09T04:18:22;95636.50;;;5.80;100.00
2000;BME280;1001;48.87406500;9.59633600;2023-04-09T04:20:49;95640.09;;;5.93;100.00
2000;BME280;1001;48.87406500;9.59633600;2023-04-09T04:23:16;95642.50;;;5.80;100.00
2000;BME280;1001;48.87406500;9.59633600;2023-04-09T04:25:42;95642.25;;;5.75;100.00
2000;BME280;1001;48.87406500;9.59633600;2023-04-09T04:28:09;95652.03;;;5.73;100.00
2000;BME280;1001;48.87406500;9.59633600;2023-04-09T04:30:35;95645.59;;;5.69;100.00
2000;BME280;1001;48.87406500;9.59633600;2023-04-09T04:33:02;95652.16;;;5.65;100.00
2000;BME280;1001;48.87406500;9.59633600;2023-04-09T04:35:30;95647.22;;;5.70;100.00
2000;BME280;1001;48.87406500;9.59633600;2023-04-09T04:37:56;95645.34;;;5.64;100.00
2000;BME280;1001;48.87406500;9.59633600;2023-04-09T04:40:23;95646.34;;;5.63;100.00
2000;BME280;1001;48.87406500;9.59633600;2023-04-09T04:42:50;95654.56;;;5.67;100.00
2000;BME280;1001;48.87406500;9.59633600;2023-04-09T04:45:16;95655.84;;;5.56;100.00
2000;BME280;1001;48.87406500;9.59633600;2023-04-09T04:47:43;95654.81;;;5.72;100.00
2000;BME280;1001;48.87406500;9.59633600;2023-04-09T04:50:09;95656.72;;;5.63;100.00
2000;BME280;1001;48.87406500;9.59633600;2023-04-09T04:52:37;95666.56;;;5.68;100.00
2000;BME280;1001;48.87406500;9.59633600;2023-04-09T04:55:05;95658.38;;;5.71;100.00
2000;BME280;1001;48.87406500;9.59633600;2023-04-09T04:57:32;95654.63;;;5.73;100.00
2000;BME280;1001;48.87406500;9.59633600;2023-04-09T04:59:58;95659.25;;;5.78;100.00
2000;BME280;1001;48.87406500;9.59633600;2023-04-09T05:02:25;95656.97;;;5.68;100.00
2000;BME280;1001;48.87406500;9.59633600;2023-04-09T05:04:51;95656.84;;;5.76;100.00
2000;BME280;1001;48.87406500;9.59633600;2023-04-09T05:07:18;95653.16;;;5.85;100.00
2000;BME280;1001;48.87406500;9.59633600;2023-04-09T05:09:46;95659.25;;;5.78;100.00
2000;BME280;1001;48.87406500;9.59633600;2023-04-09T05:12:12;95652.66;;;5.96;100.00
2000;BME280;1001;48.87406500;9.59633600;2023-04-09T05:14:42;95653.91;;;6.00;100.00
2000;BME280;1001;48.87406500;9.59633600;2023-04-09T05:17:08;95652.28;;;5.99;100.00
2000;BME280;1001;48.87406500;9.59633600;2023-04-09T05:19:35;95659.97;;;6.07;100.00
2000;BME280;1001;48.87406500;9.59633600;2023-04-09T05:22:02;95655.69;;;6.21;100.00
2000;BME280;1001;48.87406500;9.59633600;2023-04-09T05:24:28;95666.56;;;6.31;100.00
2000;BME280;1001;48.87406500;9.59633600;2023-04-09T05:26:56;95665.09;;;6.22;100.00
2000;BME280;1001;48.87406500;9.59633600;2023-04-09T05:29:23;95664.41;;;6.13;100.00
2000;BME280;1001;48.87406500;9.59633600;2023-04-09T05:31:49;95664.44;;;6.20;100.00
2000;BME280;1001;48.87406500;9.59633600;2023-04-09T05:34:16;95671.94;;;6.08;100.00
2000;BME280;1001;48.87406500;9.59633600;2023-04-09T05:36:42;95673.38;;;5.90;100.00
2000;BME280;1001;48.87406500;9.59633600;2023-04-09T05:39:09;95671.94;;;5.87;100.00
2000;BME280;1001;48.87406500;9.59633600;2023-04-09T05:41:35;95678.22;;;5.78;100.00
2000;BME280;1001;48.87406500;9.59633600;2023-04-09T05:44:04;95668.84;;;5.77;100.00
2000;BME280;1001;48.87406500;9.59633600;2023-04-09T05:46:31;95675.56;;;5.86;100.00
2000;BME280;1001;48.87406500;9.59633600;2023-04-09T05:48:57;95671.50;;;5.84;100.00
2000;BME280;1001;48.87406500;9.59633600;2023-04-09T05:51:24;95677.53;;;5.84;100.00
2000;BME280;1001;48.87406500;9.59633600;2023-04-09T05:53:50;95678.56;;;5.90;100.00
2000;BME280;1001;48.87406500;9.59633600;2023-04-09T05:56:17;95678.41;;;5.91;100.00
2000;BME280;1001;48.87406500;9.59633600;2023-04-09T05:58:43;95682.63;;;5.99;100.00
2000;BME280;1001;48.87406500;9.59633600;2023-04-09T06:01:11;95672.66;;;5.96;100.00
2000;BME280;1001;48.87406500;9.59633600;2023-04-09T06:03:38;95675.28;;;6.02;100.00
2000;BME280;1001;48.87406500;9.59633600;2023-04-09T06:06:05;95676.34;;;6.08;100.00
2000;BME280;1001;48.87406500;9.59633600;2023-04-09T06:08:31;95678.13;;;6.07;100.00
2000;BME280;1001;48.87406500;9.59633600;2023-04-09T06:10:58;95676.41;;;6.14;100.00
2000;BME280;1001;48.87406500;9.59633600;2023-04-09T06:13:25;95673.41;;;6.17;100.00
2000;BME280;1001;48.87406500;9.59633600;2023-04-09T06:15:51;95678.13;;;6.29;100.00
2000;BME280;1001;48.87406500;9.59633600;2023-04-09T06:18:19;95681.25;;;6.45;100.00
2000;BME280;1001;48.87406500;9.59633600;2023-04-09T06:20:46;95680.63;;;6.43;99.58
2000;BME280;1001;48.87406500;9.59633600;2023-04-09T06:23:12;95684.50;;;6.54;99.36
2000;BME280;1001;48.87406500;9.59633600;2023-04-09T06:25:39;95674.44;;;6.72;98.63
2000;BME280;1001;48.87406500;9.59633600;2023-04-09T06:28:06;95681.56;;;6.98;97.21
2000;BME280;1001;48.87406500;9.59633600;2023-04-09T06:30:32;95678.81;;;7.12;96.27
2000;BME280;1001;48.87406500;9.59633600;2023-04-09T06:33:01;95681.75;;;7.43;95.39
2000;BME280;1001;48.87406500;9.59633600;2023-04-09T06:35:29;95678.69;;;7.87;94.07
2000;BME280;1001;48.87406500;9.59633600;2023-04-09T06:37:55;95682.94;;;7.95;90.23
2000;BME280;1001;48.87406500;9.59633600;2023-04-09T06:40:22;95676.75;;;8.29;88.16
2000;BME280;1001;48.87406500;9.59633600;2023-04-09T06:42:49;95680.34;;;8.47;86.92
2000;BME280;1001;48.87406500;9.59633600;2023-04-09T06:45:15;95688.97;;;8.54;85.19
2000;BME280;1001;48.87406500;9.59633600;2023-04-09T06:47:42;95688.00;;;8.29;83.95
2000;BME280;1001;48.87406500;9.59633600;2023-04-09T06:50:09;95693.78;;;8.24;85.84
2000;BME280;1001;48.87406500;9.59633600;2023-04-09T06:52:37;95699.38;;;8.15;86.35
2000;BME280;1001;48.87406500;9.59633600;2023-04-09T06:55:04;95705.03;;;8.38;86.71
2000;BME280;1001;48.87406500;9.59633600;2023-04-09T06:57:31;95707.84;;;8.30;85.42
2000;BME280;1001;48.87406500;9.59633600;2023-04-09T06:59:57;95706.03;;;8.70;86.36
2000;BME280;1001;48.87406500;9.59633600;2023-04-09T07:02:24;95704.25;;;8.44;84.35
2000;BME280;1001;48.87406500;9.59633600;2023-04-09T07:04:51;95705.56;;;8.14;85.68
2000;BME280;1001;48.87406500;9.59633600;2023-04-09T07:07:18;95713.03;;;8.37;85.77
2000;BME280;1001;48.87406500;9.59633600;2023-04-09T07:09:46;95715.25;;;8.53;86.02
2000;BME280;1001;48.87406500;9.59633600;2023-04-09T07:12:13;95715.25;;;8.46;83.64
2000;BME280;1001;48.87406500;9.59633600;2023-04-09T07:14:40;95716.25;;;8.45;83.57
2000;BME280;1001;48.87406500;9.59633600;2023-04-09T07:17:07;95719.81;;;8.11;84.34
2000;BME280;1001;48.87406500;9.59633600;2023-04-09T07:19:33;95720.94;;;7.83;85.96
2000;BME280;1001;48.87406500;9.59633600;2023-04-09T07:22:00;95723.91;;;7.73;86.58
2000;BME280;1001;48.87406500;9.59633600;2023-04-09T07:24:26;95721.78;;;7.90;86.58
2000;BME280;1001;48.87406500;9.59633600;2023-04-09T07:26:54;95726.22;;;8.09;85.16
2000;BME280;1001;48.87406500;9.59633600;2023-04-09T07:29:21;95726.22;;;8.22;85.01
2000;BME280;1001;48.87406500;9.59633600;2023-04-09T07:31:48;95731.00;;;8.12;84.19
2000;BME280;1001;48.87406500;9.59633600;2023-04-09T07:34:14;95727.59;;;8.05;86.60
2000;BME280;1001;48.87406500;9.59633600;2023-04-09T07:36:41;95731.59;;;7.94;85.39
2000;BME280;1001;48.87406500;9.59633600;2023-04-09T07:39:07;95732.63;;;8.06;85.46
2000;BME280;1001;48.87406500;9.59633600;2023-04-09T07:41:34;95730.19;;;8.05;85.78
2000;BME280;1001;48.87406500;9.59633600;2023-04-09T07:44:03;95729.47;;;8.50;85.36
2000;BME280;1001;48.87406500;9.59633600;2023-04-09T07:46:30;95734.69;;;8.76;83.35
2000;BME280;1001;48.87406500;9.59633600;2023-04-09T07:48:57;95723.25;;;8.84;81.25
2000;BME280;1001;48.87406500;9.59633600;2023-04-09T07:51:24;95732.44;;;9.19;80.27
2000;BME280;1001;48.87406500;9.59633600;2023-04-09T07:53:50;95729.69;;;8.75;77.67
2000;BME280;1001;48.87406500;9.59633600;2023-04-09T07:56:17;95726.69;;;8.58;77.83
2000;BME280;1001;48.87406500;9.59633600;2023-04-09T07:58:43;95728.69;;;8.82;78.71
2000;BME280;1001;48.87406500;9.59633600;2023-04-09T08:01:11;95733.69;;;8.58;78.33
2000;BME280;1001;48.87406500;9.59633600;2023-04-09T08:03:38;95734.66;;;9.03;78.00
2000;BME280;1001;48.87406500;9.59633600;2023-04-09T08:06:04;95733.81;;;9.28;77.08
2000;BME280;1001;48.87406500;9.59633600;2023-04-09T08:08:31;95733.84;;;9.22;74.43
2000;BME280;1001;48.87406500;9.59633600;2023-04-09T08:10:58;95733.84;;;9.02;73.67
2000;BME280;1001;48.87406500;9.59633600;2023-04-09T08:13:25;95738.00;;;9.36;74.05
2000;BME280;1001;48.87406500;9.59633600;2023-04-09T08:15:51;95734.91;;;9.58;74.38
2000;BME280;1001;48.87406500;9.59633600;2023-04-09T08:18:19;95730.13;;;9.55;73.30
2000;BME280;1001;48.87406500;9.59633600;2023-04-09T08:20:46;95740.75;;;9.54;72.06
2000;BME280;1001;48.87406500;9.59633600;2023-04-09T08:23:13;95740.22;;;9.39;72.72
2000;BME280;1001;48.87406500;9.59633600;2023-04-09T08:25:39;95741.56;;;9.54;71.73
2000;BME280;1001;48.87406500;9.59633600;2023-04-09T08:28:06;95730.19;;;9.36;70.91
2000;BME280;1001;48.87406500;9.59633600;2023-04-09T08:30:33;95731.34;;;9.53;70.67
2000;BME280;1001;48.87406500;9.59633600;2023-04-09T08:32:59;95734.25;;;9.12;72.10
2000;BME280;1001;48.87406500;9.59633600;2023-04-09T08:35:29;95738.03;;;9.23;72.25
2000;BME280;1001;48.87406500;9.59633600;2023-04-09T08:37:56;95737.22;;;9.29;70.97
2000;BME280;1001;48.87406500;9.59633600;2023-04-09T08:40:23;95741.81;;;9.33;71.37
2000;BME280;1001;48.87406500;9.59633600;2023-04-09T08:42:53;95742.94;;;9.64;72.31
2000;BME280;1001;48.87406500;9.59633600;2023-04-09T08:45:23;95741.72;;;10.17;73.32
2000;BME280;1001;48.87406500;9.59633600;2023-04-09T08:47:51;95753.50;;;10.57;69.62
2000;BME280;1001;48.87406500;9.59633600;2023-04-09T08:50:19;95751.13;;;10.49;69.43
2000;BME280;1001;48.87406500;9.59633600;2023-04-09T08:52:47;95763.53;;;10.85;69.47
2000;BME280;1001;48.87406500;9.59633600;2023-04-09T08:55:14;95760.53;;;10.57;66.72
2000;BME280;1001;48.87406500;9.59633600;2023-04-09T08:57:41;95761.25;;;10.46;68.27
2000;BME280;1001;48.87406500;9.59633600;2023-04-09T09:00:08;95762.00;;;10.53;64.41
2000;BME280;1001;48.87406500;9.59633600;2023-04-09T09:02:35;95764.78;;;10.51;66.01
2000;BME280;1001;48.87406500;9.59633600;2023-04-09T09:05:03;95760.63;;;10.44;63.84
2000;BME280;1001;48.87406500;9.59633600;2023-04-09T09:07:31;95772.81;;;10.25;64.23
2000;BME280;1001;48.87406500;9.59633600;2023-04-09T09:10:00;95772.88;;;10.50;66.96
2000;BME280;1001;48.87406500;9.59633600;2023-04-09T09:12:31;95775.09;;;10.46;65.98
2000;BME280;1001;48.87406500;9.59633600;2023-04-09T09:14:58;95778.78;;;10.39;64.88
2000;BME280;1001;48.87406500;9.59633600;2023-04-09T09:17:25;95764.59;;;10.53;68.92
2000;BME280;1001;48.87406500;9.59633600;2023-04-09T09:19:54;95762.31;;;10.87;68.15
2000;BME280;1001;48.87406500;9.59633600;2023-04-09T09:22:23;95766.41;;;10.52;65.63
2000;BME280;1001;48.87406500;9.59633600;2023-04-09T09:24:51;95773.16;;;10.66;66.37
2000;BME280;1001;48.87406500;9.59633600;2023-04-09T09:27:32;95758.41;;;10.72;65.36
2000;BME280;1001;48.87406500;9.59633600;2023-04-09T09:30:01;95768.13;;;10.89;64.84
2000;BME280;1001;48.87406500;9.59633600;2023-04-09T09:32:31;95773.59;;;10.88;65.70
2000;BME280;1001;48.87406500;9.59633600;2023-04-09T09:35:00;95774.28;;;11.02;65.18
2000;BME280;1001;48.87406500;9.59633600;2023-04-09T09:37:28;95769.00;;;11.26;61.48
2000;BME280;1001;48.87406500;9.59633600;2023-04-09T09:39:55;95777.47;;;11.04;62.86
2000;BME280;1001;48.87406500;9.59633600;2023-04-09T09:42:22;95770.00;;;11.07;60.38
2000;BME280;1001;48.87406500;9.59633600;2023-04-09T09:44:52;95770.19;;;11.48;60.27
2000;BME280;1001;48.87406500;9.59633600;2023-04-09T09:47:19;95768.63;;;11.05;57.29
2000;BME280;1001;48.87406500;9.59633600;2023-04-09T09:49:47;95768.63;;;11.05;59.29
2000;BME280;1001;48.87406500;9.59633600;2023-04-09T09:52:14;95772.56;;;11.32;59.13
2000;BME280;1001;48.87406500;9.59633600;2023-04-09T09:54:42;95781.63;;;11.54;57.72
2000;BME280;1001;48.87406500;9.59633600;2023-04-09T09:57:15;95775.13;;;10.95;57.68
2000;BME280;1001;48.87406500;9.59633600;2023-04-09T09:59:49;95776.38;;;10.93;57.02
2000;BME280;1001;48.87406500;9.59633600;2023-04-09T10:02:19;95767.56;;;10.32;59.72
2000;BME280;1001;48.87406500;9.59633600;2023-04-09T10:04:48;95764.16;;;10.24;58.88
2000;BME280;1001;48.87406500;9.59633600;2023-04-09T10:07:15;95776.00;;;10.34;58.92
2000;BME280;1001;48.87406500;9.59633600;2023-04-09T10:09:48;95771.06;;;10.50;58.66
2000;BME280;1001;48.87406500;9.59633600;2023-04-09T10:12:15;95773.03;;;10.79;57.35
2000;BME280;1001;48.87406500;9.59633600;2023-04-09T10:14:42;95770.75;;;11.14;59.25
2000;BME280;1001;48.87406500;9.59633600;2023-04-09T10:17:10;95763.66;;;11.57;57.41
2000;BME280;1001;48.87406500;9.59633600;2023-04-09T10:19:43;95755.22;;;11.55;55.14
2000;BME280;1001;48.87406500;9.59633600;2023-04-09T10:22:16;95767.72;;;11.53;55.08
2000;BME280;1001;48.87406500;9.59633600;2023-04-09T10:24:43;95760.91;;;11.71;55.41
2000;BME280;1001;48.87406500;9.59633600;2023-04-09T10:27:12;95769.13;;;11.56;56.84
2000;BME280;1001;48.87406500;9.59633600;2023-04-09T10:29:42;95769.38;;;11.73;55.09
2000;BME280;1001;48.87406500;9.59633600;2023-04-09T10:32:25;95767.91;;;11.77;55.96
2000;BME280;1001;48.87406500;9.59633600;2023-04-09T10:34:55;95770.16;;;11.73;56.75
2000;BME280;1001;48.87406500;9.59633600;2023-04-09T10:37:24;95762.56;;;11.65;58.21
2000;BME280;1001;48.87406500;9.59633600;2023-04-09T10:39:51;95766.00;;;12.02;55.45
2000;BME280;1001;48.87406500;9.59633600;2023-04-09T10:42:19;95758.78;;;11.61;54.10
2000;BME280;1001;48.87406500;9.59633600;2023-04-09T10:45:03;95760.75;;;11.66;53.51
2000;BME280;1001;48.87406500;9.59633600;2023-04-09T10:47:33;95758.25;;;11.34;50.80
2000;BME280;1001;48.87406500;9.59633600;2023-04-09T10:50:14;95764.06;;;11.18;51.62
2000;BME280;1001;48.87406500;9.59633600;2023-04-09T10:52:41;95761.03;;;10.97;52.35
2000;BME280;1001;48.87406500;9.59633600;2023-04-09T10:55:08;95753.81;;;11.53;53.44
2000;BME280;1001;48.87406500;9.59633600;2023-04-09T10:57:35;95749.94;;;11.80;51.72
2000;BME280;1001;48.87406500;9.59633600;2023-04-09T11:00:03;95745.97;;;12.19;52.25
2000;BME280;1001;48.87406500;9.59633600;2023-04-09T11:02:57;95752.66;;;12.33;53.02
2000;BME280;1001;48.87406500;9.59633600;2023-04-09T11:05:31;95752.31;;;12.29;52.08
2000;BME280;1001;48.87406500;9.59633600;2023-04-09T11:08:04;95734.25;;;12.21;50.48
2000;BME280;1001;48.87406500;9.59633600;2023-04-09T11:10:31;95742.56;;;12.48;52.62
2000;BME280;1001;48.87406500;9.59633600;2023-04-09T11:12:58;95733.78;;;12.54;52.90
2000;BME280;1001;48.87406500;9.59633600;2023-04-09T11:15:25;95744.78;;;12.33;50.11
2000;BME280;1001;48.87406500;9.59633600;2023-04-09T11:17:51;95739.00;;;12.43;50.22
2000;BME280;1001;48.87406500;9.59633600;2023-04-09T11:20:21;95740.06;;;12.53;49.96
2000;BME280;1001;48.87406500;9.59633600;2023-04-09T11:22:48;95730.06;;;12.85;49.73
2000;BME280;1001;48.87406500;9.59633600;2023-04-09T11:25:19;95732.16;;;13.06;47.49
2000;BME280;1001;48.87406500;9.59633600;2023-04-09T11:27:46;95732.16;;;13.29;46.15
2000;BME280;1001;48.87406500;9.59633600;2023-04-09T11:30:12;95727.09;;;13.62;46.73
2000;BME280;1001;48.87406500;9.59633600;2023-04-09T11:32:39;95732.00;;;14.27;47.05
2000;BME280;1001;48.87406500;9.59633600;2023-04-09T11:35:10;95730.84;;;14.35;45.68
2000;BME280;1001;48.87406500;9.59633600;2023-04-09T11:37:39;95737.63;;;14.92;44.79
2000;BME280;1001;48.87406500;9.59633600;2023-04-09T11:40:08;95725.47;;;14.58;45.28
2000;BME280;1001;48.87406500;9.59633600;2023-04-09T11:42:39;95730.63;;;14.24;46.29
2000;BME280;1001;48.87406500;9.59633600;2023-04-09T11:45:08;95724.47;;;13.39;46.95
2000;BME280;1001;48.87406500;9.59633600;2023-04-09T11:47:35;95735.41;;;12.90;46.62
2000;BME280;1001;48.87406500;9.59633600;2023-04-09T11:50:02;95737.59;;;12.81;46.35